createdAt,value
2022-09-28T00:06:10.582Z,25.42
2022-09-28T00:16:17.443Z,25.39
2022-09-28T00:26:23.669Z,25.36
2022-09-28T00:36:29.675Z,25.32
2022-09-28T00:46:35.675Z,25.30
2022-09-28T00:56:41.809Z,25.26
2022-09-28T01:06:48.176Z,25.28
2022-09-28T01:16:54.307Z,25.27
2022-09-28T01:27:00.888Z,25.29
2022-09-28T01:37:07.727Z,25.28
2022-09-28T01:47:14.431Z,25.25
2022-09-28T01:57:21.364Z,25.21
2022-09-28T02:07:28.421Z,25.19
2022-09-28T02:17:34.844Z,25.18
2022-09-28T02:27:40.953Z,25.18
2022-09-28T02:37:46.995Z,25.19
2022-09-28T02:47:53.196Z,25.15
2022-09-28T02:57:59.716Z,25.14
2022-09-28T03:08:06.235Z,25.13
2022-09-28T03:18:12.929Z,25.12
2022-09-28T03:28:19.370Z,25.10
2022-09-28T03:38:25.594Z,25.07
2022-09-28T03:48:32.813Z,25.05
2022-09-28T03:58:39.700Z,25.08
2022-09-28T04:08:48.843Z,25.06
2022-09-28T04:18:55.131Z,25.02
2022-09-28T04:29:06.167Z,25.00
2022-09-28T04:39:13.295Z,24.99
2022-09-28T04:49:19.325Z,24.98
2022-09-28T04:59:25.444Z,24.98
2022-09-28T05:09:34.995Z,24.99
2022-09-28T05:19:43.082Z,25.08
2022-09-28T05:29:49.416Z,25.10
2022-09-28T05:39:56.015Z,25.11
2022-09-28T05:50:02.176Z,25.14
2022-09-28T06:00:08.628Z,25.05
2022-09-28T06:10:14.955Z,25.17
2022-09-28T06:20:21.395Z,25.04
2022-09-28T06:30:27.616Z,24.98
2022-09-28T06:40:33.900Z,24.91
2022-09-28T06:50:40.560Z,24.86
2022-09-28T07:00:47.023Z,24.88
2022-09-28T07:10:53.488Z,24.85
2022-09-28T07:21:02.828Z,24.81
2022-09-28T07:31:08.992Z,24.79
2022-09-28T07:41:14.963Z,24.78
2022-09-28T07:51:21.511Z,24.75
2022-09-28T08:01:27.911Z,24.70
2022-09-28T08:11:35.109Z,24.54
2022-09-28T08:21:41.864Z,24.50
2022-09-28T08:31:48.572Z,24.46
2022-09-28T08:41:55.461Z,24.43
2022-09-28T08:52:02.192Z,24.35
2022-09-28T09:02:09.278Z,24.32
2022-09-28T09:12:16.564Z,24.20
2022-09-28T09:22:23.181Z,24.28
2022-09-28T09:32:29.487Z,24.31
2022-09-28T09:42:35.969Z,24.33
2022-09-28T09:52:44.364Z,24.36
2022-09-28T10:02:50.890Z,24.38
2022-09-28T10:12:57.636Z,24.39
2022-09-28T10:23:03.845Z,24.37
2022-09-28T10:33:10.032Z,24.40
2022-09-28T10:43:16.542Z,24.40
2022-09-28T10:53:23.143Z,24.39
2022-09-28T11:03:29.475Z,24.39
2022-09-28T11:13:35.627Z,24.39
2022-09-28T11:23:41.428Z,24.40
2022-09-28T11:33:47.809Z,24.39
2022-09-28T11:43:54.618Z,24.39
2022-09-28T11:54:00.800Z,24.38
2022-09-28T12:04:07.503Z,24.39
2022-09-28T12:14:13.702Z,24.41
2022-09-28T12:24:20.048Z,24.42
2022-09-28T12:34:26.185Z,24.42
2022-09-28T12:44:32.680Z,24.40
2022-09-28T12:54:38.996Z,24.38
2022-09-28T13:04:45.448Z,24.41
2022-09-28T13:14:52.240Z,24.42
2022-09-28T13:24:58.501Z,24.41
2022-09-28T13:35:04.712Z,24.41
2022-09-28T13:45:10.647Z,24.38
2022-09-28T13:55:17.713Z,24.39
2022-09-28T14:05:23.728Z,24.41
2022-09-28T14:15:30.502Z,24.41
2022-09-28T14:25:36.797Z,24.39
2022-09-28T14:35:43.203Z,24.40
2022-09-28T14:45:49.448Z,24.40
2022-09-28T14:55:56.018Z,24.38
2022-09-28T15:06:03.102Z,24.39
2022-09-28T15:16:09.306Z,24.38
2022-09-28T15:26:16.179Z,24.37
2022-09-28T15:36:22.618Z,24.36
2022-09-28T15:46:29.884Z,24.36
2022-09-28T15:56:36.568Z,24.35
2022-09-28T16:06:43.528Z,24.35
2022-09-28T16:16:50.133Z,24.34
2022-09-28T16:26:57.360Z,24.32
2022-09-28T16:37:04.311Z,24.31
2022-09-28T16:47:11.277Z,24.30
2022-09-28T16:57:18.062Z,24.30
2022-09-28T17:07:25.154Z,24.29
2022-09-28T17:17:32.215Z,24.28
2022-09-28T17:27:39.093Z,24.30
2022-09-28T17:37:46.299Z,24.39
2022-09-28T17:47:53.845Z,24.51
2022-09-28T17:58:01.124Z,24.50
2022-09-28T18:08:08.481Z,24.52
2022-09-28T18:18:16.427Z,24.51
2022-09-28T18:28:23.345Z,24.59
2022-09-28T18:38:30.492Z,24.64
2022-09-28T18:48:37.655Z,24.66
2022-09-28T18:58:44.395Z,24.67
2022-09-28T19:08:51.680Z,24.64
2022-09-28T19:18:58.681Z,24.77
2022-09-28T19:29:05.842Z,24.87
2022-09-28T19:39:13.318Z,24.88
2022-09-28T19:49:20.694Z,24.91
2022-09-28T19:59:27.851Z,24.93
2022-09-28T20:09:35.121Z,25.05
2022-09-28T20:19:41.433Z,25.03
2022-09-28T20:29:47.924Z,25.07
2022-09-28T20:39:55.057Z,25.08
2022-09-28T20:50:02.012Z,25.03
2022-09-28T21:00:09.092Z,25.01
2022-09-28T21:10:15.369Z,24.95
2022-09-28T21:20:22.322Z,24.93
2022-09-28T21:30:29.466Z,24.95
2022-09-28T21:40:36.332Z,25.00
2022-09-28T21:50:43.774Z,24.95
2022-09-28T22:00:50.285Z,24.90
2022-09-28T22:10:57.297Z,24.85
2022-09-28T22:21:04.344Z,24.83
2022-09-28T22:31:10.300Z,24.82
2022-09-28T22:41:17.692Z,24.79
2022-09-28T22:51:24.878Z,24.79
2022-09-28T23:01:31.966Z,24.77
2022-09-28T23:11:38.844Z,24.74
2022-09-28T23:21:45.679Z,24.71
2022-09-28T23:31:52.868Z,24.70
2022-09-28T23:41:59.807Z,24.69
2022-09-28T23:52:06.646Z,24.68
